sensor_id;sensor_type;location;lat;lon;timestamp;P1;durP1;ratioP1;P2;durP2;ratioP2
60859;SDS011;46694;54.382;9.708;2023-02-26T00:00:14;3.38;;;1.55;;
60859;SDS011;46694;54.382;9.708;2023-02-26T00:02:54;4.32;;;1.20;;
60859;SDS011;46694;54.382;9.708;2023-02-26T00:05:33;6.35;;;1.35;;
60859;SDS011;46694;54.382;9.708;2023-02-26T00:08:13;3.17;;;0.80;;
60859;SDS011;46694;54.382;9.708;2023-02-26T00:10:53;8.25;;;1.75;;
60859;SDS011;46694;54.382;9.708;2023-02-26T00:13:33;9.15;;;2.53;;
60859;SDS011;46694;54.382;9.708;2023-02-26T00:19:11;8.23;;;1.60;;
60859;SDS011;46694;54.382;9.708;2023-02-26T00:21:51;6.75;;;0.95;;
60859;SDS011;46694;54.382;9.708;2023-02-26T00:24:31;2.40;;;0.98;;
60859;SDS011;46694;54.382;9.708;2023-02-26T00:27:11;5.45;;;1.30;;
60859;SDS011;46694;54.382;9.708;2023-02-26T00:29:51;3.03;;;1.00;;
60859;SDS011;46694;54.382;9.708;2023-02-26T00:32:31;4.45;;;1.52;;
60859;SDS011;46694;54.382;9.708;2023-02-26T00:35:12;6.22;;;1.10;;
60859;SDS011;46694;54.382;9.708;2023-02-26T00:37:58;1.70;;;1.00;;
60859;SDS011;46694;54.382;9.708;2023-02-26T00:40:50;2.85;;;1.20;;
60859;SDS011;46694;54.382;9.708;2023-02-26T00:43:31;5.18;;;1.15;;
60859;SDS011;46694;54.382;9.708;2023-02-26T00:46:24;14.23;;;2.05;;
60859;SDS011;46694;54.382;9.708;2023-02-26T00:52:04;5.45;;;1.00;;
60859;SDS011;46694;54.382;9.708;2023-02-26T00:54:51;2.42;;;1.30;;
60859;SDS011;46694;54.382;9.708;2023-02-26T00:57:30;2.75;;;0.80;;
60859;SDS011;46694;54.382;9.708;2023-02-26T01:00:10;4.35;;;1.10;;
60859;SDS011;46694;54.382;9.708;2023-02-26T01:02:51;4.93;;;1.20;;
60859;SDS011;46694;54.382;9.708;2023-02-26T01:05:31;6.18;;;0.90;;
60859;SDS011;46694;54.382;9.708;2023-02-26T01:08:13;4.00;;;0.85;;
60859;SDS011;46694;54.382;9.708;2023-02-26T01:10:58;9.23;;;1.08;;
60859;SDS011;46694;54.382;9.708;2023-02-26T01:13:38;7.35;;;1.00;;
60859;SDS011;46694;54.382;9.708;2023-02-26T01:16:21;4.95;;;1.20;;
60859;SDS011;46694;54.382;9.708;2023-02-26T01:19:13;5.90;;;1.20;;
60859;SDS011;46694;54.382;9.708;2023-02-26T01:22:15;4.28;;;1.02;;
60859;SDS011;46694;54.382;9.708;2023-02-26T01:25:08;10.80;;;2.20;;
60859;SDS011;46694;54.382;9.708;2023-02-26T01:27:52;11.23;;;1.73;;
60859;SDS011;46694;54.382;9.708;2023-02-26T01:30:34;3.35;;;1.23;;
60859;SDS011;46694;54.382;9.708;2023-02-26T01:33:22;3.72;;;1.98;;
60859;SDS011;46694;54.382;9.708;2023-02-26T01:36:20;3.75;;;1.10;;
60859;SDS011;46694;54.382;9.708;2023-02-26T01:39:09;6.93;;;1.20;;
60859;SDS011;46694;54.382;9.708;2023-02-26T01:41:59;12.80;;;1.33;;
60859;SDS011;46694;54.382;9.708;2023-02-26T01:45:16;6.45;;;0.82;;
60859;SDS011;46694;54.382;9.708;2023-02-26T01:48:17;2.97;;;0.85;;
60859;SDS011;46694;54.382;9.708;2023-02-26T01:51:14;6.63;;;1.10;;
60859;SDS011;46694;54.382;9.708;2023-02-26T01:53:53;3.58;;;1.42;;
60859;SDS011;46694;54.382;9.708;2023-02-26T01:56:33;7.07;;;1.08;;
60859;SDS011;46694;54.382;9.708;2023-02-26T01:59:13;2.67;;;1.08;;
60859;SDS011;46694;54.382;9.708;2023-02-26T02:01:58;2.40;;;0.68;;
60859;SDS011;46694;54.382;9.708;2023-02-26T02:04:40;3.28;;;0.90;;
60859;SDS011;46694;54.382;9.708;2023-02-26T02:07:21;7.43;;;1.58;;
60859;SDS011;46694;54.382;9.708;2023-02-26T02:10:00;5.32;;;1.20;;
60859;SDS011;46694;54.382;9.708;2023-02-26T02:13:24;6.03;;;1.10;;
60859;SDS011;46694;54.382;9.708;2023-02-26T02:16:20;3.17;;;0.90;;
60859;SDS011;46694;54.382;9.708;2023-02-26T02:22:27;3.08;;;1.27;;
60859;SDS011;46694;54.382;9.708;2023-02-26T02:32:21;5.28;;;1.05;;
60859;SDS011;46694;54.382;9.708;2023-02-26T02:35:22;9.23;;;1.58;;
60859;SDS011;46694;54.382;9.708;2023-02-26T02:38:24;7.35;;;1.52;;
60859;SDS011;46694;54.382;9.708;2023-02-26T02:41:14;1.98;;;0.95;;
60859;SDS011;46694;54.382;9.708;2023-02-26T02:44:01;3.78;;;0.80;;
60859;SDS011;46694;54.382;9.708;2023-02-26T02:46:47;7.68;;;1.00;;
60859;SDS011;46694;54.382;9.708;2023-02-26T02:49:36;4.65;;;1.10;;
60859;SDS011;46694;54.382;9.708;2023-02-26T02:52:25;4.18;;;0.93;;
60859;SDS011;46694;54.382;9.708;2023-02-26T02:55:14;4.15;;;1.10;;
60859;SDS011;46694;54.382;9.708;2023-02-26T02:58:01;9.70;;;1.30;;
60859;SDS011;46694;54.382;9.708;2023-02-26T03:00:47;4.10;;;0.85;;
60859;SDS011;46694;54.382;9.708;2023-02-26T03:06:49;3.65;;;0.68;;
60859;SDS011;46694;54.382;9.708;2023-02-26T03:09:29;5.25;;;1.45;;
60859;SDS011;46694;54.382;9.708;2023-02-26T03:12:08;6.82;;;1.48;;
60859;SDS011;46694;54.382;9.708;2023-02-26T03:14:48;5.78;;;1.50;;
60859;SDS011;46694;54.382;9.708;2023-02-26T03:17:32;5.45;;;1.33;;
60859;SDS011;46694;54.382;9.708;2023-02-26T03:20:25;2.28;;;1.30;;
60859;SDS011;46694;54.382;9.708;2023-02-26T03:23:24;3.38;;;1.25;;
60859;SDS011;46694;54.382;9.708;2023-02-26T03:26:14;5.65;;;1.88;;
60859;SDS011;46694;54.382;9.708;2023-02-26T03:29:19;7.30;;;1.30;;
60859;SDS011;46694;54.382;9.708;2023-02-26T03:32:30;5.60;;;1.70;;
60859;SDS011;46694;54.382;9.708;2023-02-26T03:38:53;6.30;;;1.50;;
60859;SDS011;46694;54.382;9.708;2023-02-26T03:41:46;5.47;;;1.30;;
60859;SDS011;46694;54.382;9.708;2023-02-26T03:44:54;4.85;;;1.92;;
60859;SDS011;46694;54.382;9.708;2023-02-26T03:47:39;5.45;;;1.35;;
60859;SDS011;46694;54.382;9.708;2023-02-26T03:50:31;4.68;;;1.75;;
60859;SDS011;46694;54.382;9.708;2023-02-26T03:53:27;9.13;;;1.08;;
60859;SDS011;46694;54.382;9.708;2023-02-26T03:56:16;5.63;;;1.50;;
60859;SDS011;46694;54.382;9.708;2023-02-26T03:59:06;3.30;;;1.58;;
60859;SDS011;46694;54.382;9.708;2023-02-26T04:04:38;3.85;;;1.52;;
60859;SDS011;46694;54.382;9.708;2023-02-26T04:07:32;4.25;;;1.13;;
60859;SDS011;46694;54.382;9.708;2023-02-26T04:10:13;4.50;;;1.42;;
60859;SDS011;46694;54.382;9.708;2023-02-26T04:12:58;5.35;;;1.40;;
60859;SDS011;46694;54.382;9.708;2023-02-26T04:15:39;9.50;;;1.83;;
60859;SDS011;46694;54.382;9.708;2023-02-26T04:18:19;2.92;;;1.30;;
60859;SDS011;46694;54.382;9.708;2023-02-26T04:20:58;4.05;;;1.67;;
60859;SDS011;46694;54.382;9.708;2023-02-26T04:23:38;5.68;;;1.60;;
60859;SDS011;46694;54.382;9.708;2023-02-26T04:26:17;7.97;;;1.80;;
60859;SDS011;46694;54.382;9.708;2023-02-26T04:28:57;5.97;;;1.58;;
60859;SDS011;46694;54.382;9.708;2023-02-26T04:31:36;4.97;;;1.58;;
60859;SDS011;46694;54.382;9.708;2023-02-26T04:34:16;4.03;;;1.60;;
60859;SDS011;46694;54.382;9.708;2023-02-26T04:36:56;3.20;;;1.23;;
60859;SDS011;46694;54.382;9.708;2023-02-26T04:39:35;3.72;;;1.10;;
60859;SDS011;46694;54.382;9.708;2023-02-26T04:42:15;6.35;;;1.55;;
60859;SDS011;46694;54.382;9.708;2023-02-26T04:44:54;6.63;;;1.55;;
60859;SDS011;46694;54.382;9.708;2023-02-26T04:47:34;3.42;;;1.50;;
60859;SDS011;46694;54.382;9.708;2023-02-26T04:50:14;6.78;;;1.30;;
60859;SDS011;46694;54.382;9.708;2023-02-26T04:52:54;7.10;;;1.25;;
60859;SDS011;46694;54.382;9.708;2023-02-26T04:55:34;5.15;;;1.75;;
60859;SDS011;46694;54.382;9.708;2023-02-26T04:58:14;4.68;;;1.90;;
60859;SDS011;46694;54.382;9.708;2023-02-26T05:00:55;5.95;;;1.58;;
60859;SDS011;46694;54.382;9.708;2023-02-26T05:03:35;4.30;;;1.80;;
60859;SDS011;46694;54.382;9.708;2023-02-26T05:06:15;5.90;;;1.80;;
60859;SDS011;46694;54.382;9.708;2023-02-26T05:08:54;9.15;;;2.00;;
60859;SDS011;46694;54.382;9.708;2023-02-26T05:11:34;2.17;;;1.33;;
60859;SDS011;46694;54.382;9.708;2023-02-26T05:14:14;4.88;;;1.60;;
60859;SDS011;46694;54.382;9.708;2023-02-26T05:16:54;4.38;;;1.70;;
60859;SDS011;46694;54.382;9.708;2023-02-26T05:19:34;7.68;;;2.10;;
60859;SDS011;46694;54.382;9.708;2023-02-26T05:22:14;2.53;;;1.27;;
60859;SDS011;46694;54.382;9.708;2023-02-26T05:24:53;3.00;;;1.58;;
60859;SDS011;46694;54.382;9.708;2023-02-26T05:27:33;3.60;;;1.60;;
60859;SDS011;46694;54.382;9.708;2023-02-26T05:30:13;11.07;;;1.67;;
60859;SDS011;46694;54.382;9.708;2023-02-26T05:32:54;4.93;;;1.90;;
60859;SDS011;46694;54.382;9.708;2023-02-26T05:35:34;4.13;;;2.00;;
60859;SDS011;46694;54.382;9.708;2023-02-26T05:38:13;4.32;;;1.60;;
60859;SDS011;46694;54.382;9.708;2023-02-26T05:40:56;5.43;;;1.75;;
60859;SDS011;46694;54.382;9.708;2023-02-26T05:43:37;4.60;;;2.30;;
60859;SDS011;46694;54.382;9.708;2023-02-26T05:46:17;18.90;;;9.48;;
60859;SDS011;46694;54.382;9.708;2023-02-26T05:48:56;7.00;;;2.70;;
60859;SDS011;46694;54.382;9.708;2023-02-26T05:51:36;1.63;;;1.20;;
60859;SDS011;46694;54.382;9.708;2023-02-26T05:54:17;5.47;;;1.60;;
60859;SDS011;46694;54.382;9.708;2023-02-26T05:56:56;2.25;;;1.65;;
60859;SDS011;46694;54.382;9.708;2023-02-26T05:59:36;4.03;;;1.73;;
60859;SDS011;46694;54.382;9.708;2023-02-26T06:02:17;2.75;;;1.63;;
60859;SDS011;46694;54.382;9.708;2023-02-26T06:04:57;5.43;;;1.80;;
60859;SDS011;46694;54.382;9.708;2023-02-26T06:07:36;5.40;;;1.90;;
60859;SDS011;46694;54.382;9.708;2023-02-26T06:10:16;1.77;;;1.20;;
60859;SDS011;46694;54.382;9.708;2023-02-26T06:12:56;5.15;;;2.30;;
60859;SDS011;46694;54.382;9.708;2023-02-26T06:15:35;4.53;;;2.00;;
60859;SDS011;46694;54.382;9.708;2023-02-26T06:18:15;2.30;;;1.90;;
60859;SDS011;46694;54.382;9.708;2023-02-26T06:20:55;7.25;;;1.75;;
60859;SDS011;46694;54.382;9.708;2023-02-26T06:23:34;4.82;;;2.42;;
60859;SDS011;46694;54.382;9.708;2023-02-26T06:26:14;2.22;;;1.60;;
60859;SDS011;46694;54.382;9.708;2023-02-26T06:28:53;8.38;;;1.67;;
60859;SDS011;46694;54.382;9.708;2023-02-26T06:31:33;3.47;;;1.70;;
60859;SDS011;46694;54.382;9.708;2023-02-26T06:34:12;3.55;;;1.70;;
60859;SDS011;46694;54.382;9.708;2023-02-26T06:36:52;4.30;;;1.08;;
60859;SDS011;46694;54.382;9.708;2023-02-26T06:39:32;5.38;;;1.60;;
60859;SDS011;46694;54.382;9.708;2023-02-26T06:42:11;7.35;;;1.30;;
60859;SDS011;46694;54.382;9.708;2023-02-26T06:44:51;4.85;;;1.70;;
60859;SDS011;46694;54.382;9.708;2023-02-26T06:47:31;4.70;;;1.67;;
60859;SDS011;46694;54.382;9.708;2023-02-26T06:50:10;6.68;;;1.35;;
60859;SDS011;46694;54.382;9.708;2023-02-26T06:52:50;3.53;;;1.35;;
60859;SDS011;46694;54.382;9.708;2023-02-26T06:55:30;5.80;;;1.45;;
60859;SDS011;46694;54.382;9.708;2023-02-26T06:58:10;2.88;;;1.27;;
60859;SDS011;46694;54.382;9.708;2023-02-26T07:00:50;4.55;;;1.70;;
60859;SDS011;46694;54.382;9.708;2023-02-26T07:03:30;3.92;;;1.80;;
60859;SDS011;46694;54.382;9.708;2023-02-26T07:06:10;3.47;;;1.50;;
60859;SDS011;46694;54.382;9.708;2023-02-26T07:08:51;5.85;;;2.13;;
60859;SDS011;46694;54.382;9.708;2023-02-26T07:11:30;10.18;;;1.50;;
60859;SDS011;46694;54.382;9.708;2023-02-26T07:14:10;4.15;;;1.75;;
60859;SDS011;46694;54.382;9.708;2023-02-26T07:16:50;6.35;;;2.35;;
60859;SDS011;46694;54.382;9.708;2023-02-26T07:19:30;9.35;;;1.85;;
60859;SDS011;46694;54.382;9.708;2023-02-26T07:22:09;3.78;;;1.67;;
60859;SDS011;46694;54.382;9.708;2023-02-26T07:24:49;8.57;;;1.23;;
60859;SDS011;46694;54.382;9.708;2023-02-26T07:27:29;4.65;;;1.10;;
60859;SDS011;46694;54.382;9.708;2023-02-26T07:30:11;8.50;;;2.00;;
60859;SDS011;46694;54.382;9.708;2023-02-26T07:32:51;2.75;;;1.23;;
60859;SDS011;46694;54.382;9.708;2023-02-26T07:35:31;7.20;;;1.30;;
60859;SDS011;46694;54.382;9.708;2023-02-26T07:38:10;6.28;;;1.60;;
60859;SDS011;46694;54.382;9.708;2023-02-26T07:40:50;2.83;;;1.80;;
60859;SDS011;46694;54.382;9.708;2023-02-26T07:43:33;6.20;;;1.55;;
60859;SDS011;46694;54.382;9.708;2023-02-26T07:46:12;3.53;;;1.35;;
60859;SDS011;46694;54.382;9.708;2023-02-26T07:48:52;6.75;;;1.33;;
60859;SDS011;46694;54.382;9.708;2023-02-26T07:51:32;3.05;;;1.40;;
60859;SDS011;46694;54.382;9.708;2023-02-26T07:54:11;31.60;;;2.35;;
60859;SDS011;46694;54.382;9.708;2023-02-26T07:56:51;2.85;;;1.00;;
60859;SDS011;46694;54.382;9.708;2023-02-26T07:59:31;4.03;;;1.90;;
60859;SDS011;46694;54.382;9.708;2023-02-26T08:02:11;2.50;;;1.40;;
60859;SDS011;46694;54.382;9.708;2023-02-26T08:04:51;7.60;;;2.20;;
60859;SDS011;46694;54.382;9.708;2023-02-26T08:07:31;2.95;;;1.30;;
60859;SDS011;46694;54.382;9.708;2023-02-26T08:10:10;10.00;;;1.63;;
60859;SDS011;46694;54.382;9.708;2023-02-26T08:12:50;3.00;;;1.73;;
60859;SDS011;46694;54.382;9.708;2023-02-26T08:15:30;3.63;;;1.70;;
60859;SDS011;46694;54.382;9.708;2023-02-26T08:18:10;9.45;;;2.20;;
60859;SDS011;46694;54.382;9.708;2023-02-26T08:20:50;5.47;;;1.40;;
60859;SDS011;46694;54.382;9.708;2023-02-26T08:23:30;4.53;;;1.30;;
60859;SDS011;46694;54.382;9.708;2023-02-26T08:26:10;9.23;;;1.80;;
60859;SDS011;46694;54.382;9.708;2023-02-26T08:28:51;1.77;;;0.88;;
60859;SDS011;46694;54.382;9.708;2023-02-26T08:31:30;5.45;;;1.25;;
60859;SDS011;46694;54.382;9.708;2023-02-26T08:34:12;4.15;;;1.20;;
60859;SDS011;46694;54.382;9.708;2023-02-26T08:36:51;5.32;;;1.20;;
60859;SDS011;46694;54.382;9.708;2023-02-26T08:39:31;4.85;;;1.50;;
60859;SDS011;46694;54.382;9.708;2023-02-26T08:42:15;5.20;;;1.58;;
60859;SDS011;46694;54.382;9.708;2023-02-26T08:44:55;5.80;;;1.83;;
60859;SDS011;46694;54.382;9.708;2023-02-26T08:47:34;4.60;;;1.30;;
60859;SDS011;46694;54.382;9.708;2023-02-26T08:50:15;4.20;;;1.30;;
60859;SDS011;46694;54.382;9.708;2023-02-26T08:52:55;7.45;;;1.40;;
60859;SDS011;46694;54.382;9.708;2023-02-26T08:55:34;8.18;;;1.55;;
60859;SDS011;46694;54.382;9.708;2023-02-26T08:58:14;8.30;;;2.70;;
60859;SDS011;46694;54.382;9.708;2023-02-26T09:00:53;6.23;;;1.30;;
60859;SDS011;46694;54.382;9.708;2023-02-26T09:03:33;6.20;;;1.30;;
60859;SDS011;46694;54.382;9.708;2023-02-26T09:06:13;3.80;;;1.43;;
60859;SDS011;46694;54.382;9.708;2023-02-26T09:16:43;5.07;;;1.07;;
60859;SDS011;46694;54.382;9.708;2023-02-26T09:19:23;6.43;;;1.33;;
60859;SDS011;46694;54.382;9.708;2023-02-26T09:22:03;2.43;;;1.33;;
60859;SDS011;46694;54.382;9.708;2023-02-26T09:24:43;2.00;;;0.97;;
60859;SDS011;46694;54.382;9.708;2023-02-26T09:27:22;3.00;;;1.53;;
60859;SDS011;46694;54.382;9.708;2023-02-26T09:30:03;3.00;;;1.30;;
60859;SDS011;46694;54.382;9.708;2023-02-26T09:32:43;2.67;;;0.90;;
60859;SDS011;46694;54.382;9.708;2023-02-26T09:35:23;4.80;;;1.33;;
60859;SDS011;46694;54.382;9.708;2023-02-26T09:38:03;3.23;;;1.27;;
60859;SDS011;46694;54.382;9.708;2023-02-26T09:40:50;5.00;;;1.43;;
60859;SDS011;46694;54.382;9.708;2023-02-26T09:50:03;4.80;;;1.00;;
60859;SDS011;46694;54.382;9.708;2023-02-26T09:53:00;4.70;;;1.10;;
60859;SDS011;46694;54.382;9.708;2023-02-26T09:56:06;2.50;;;0.80;;
60859;SDS011;46694;54.382;9.708;2023-02-26T09:58:54;5.13;;;1.00;;
60859;SDS011;46694;54.382;9.708;2023-02-26T10:01:35;3.50;;;1.00;;
60859;SDS011;46694;54.382;9.708;2023-02-26T10:13:23;5.27;;;1.00;;
60859;SDS011;46694;54.382;9.708;2023-02-26T10:16:18;6.50;;;1.17;;
60859;SDS011;46694;54.382;9.708;2023-02-26T10:19:09;3.13;;;1.30;;
60859;SDS011;46694;54.382;9.708;2023-02-26T10:22:00;6.03;;;1.63;;
60859;SDS011;46694;54.382;9.708;2023-02-26T10:30:59;5.60;;;1.30;;
60859;SDS011;46694;54.382;9.708;2023-02-26T10:34:35;4.83;;;1.30;;
60859;SDS011;46694;54.382;9.708;2023-02-26T10:37:37;12.17;;;1.60;;
60859;SDS011;46694;54.382;9.708;2023-02-26T10:46:32;3.20;;;1.03;;
60859;SDS011;46694;54.382;9.708;2023-02-26T10:52:52;8.13;;;1.17;;
60859;SDS011;46694;54.382;9.708;2023-02-26T10:55:46;6.03;;;1.13;;
60859;SDS011;46694;54.382;9.708;2023-02-26T10:58:45;6.40;;;1.53;;
60859;SDS011;46694;54.382;9.708;2023-02-26T11:01:25;3.42;;;1.10;;
60859;SDS011;46694;54.382;9.708;2023-02-26T11:04:11;2.67;;;0.80;;
60859;SDS011;46694;54.382;9.708;2023-02-26T11:06:57;5.60;;;1.10;;
60859;SDS011;46694;54.382;9.708;2023-02-26T11:09:42;4.87;;;1.60;;
60859;SDS011;46694;54.382;9.708;2023-02-26T11:12:23;6.57;;;1.30;;
60859;SDS011;46694;54.382;9.708;2023-02-26T11:15:04;7.70;;;1.90;;
60859;SDS011;46694;54.382;9.708;2023-02-26T11:17:44;4.70;;;1.17;;
60859;SDS011;46694;54.382;9.708;2023-02-26T11:20:34;9.63;;;1.20;;
60859;SDS011;46694;54.382;9.708;2023-02-26T11:23:17;3.90;;;1.17;;
60859;SDS011;46694;54.382;9.708;2023-02-26T11:26:01;5.25;;;1.17;;
60859;SDS011;46694;54.382;9.708;2023-02-26T11:28:46;3.28;;;1.30;;
60859;SDS011;46694;54.382;9.708;2023-02-26T11:31:28;2.75;;;0.90;;
60859;SDS011;46694;54.382;9.708;2023-02-26T11:34:09;2.95;;;1.50;;
60859;SDS011;46694;54.382;9.708;2023-02-26T11:36:50;4.05;;;1.15;;
60859;SDS011;46694;54.382;9.708;2023-02-26T11:39:34;3.90;;;1.30;;
60859;SDS011;46694;54.382;9.708;2023-02-26T11:42:16;4.30;;;1.52;;
60859;SDS011;46694;54.382;9.708;2023-02-26T11:44:56;4.63;;;1.42;;
60859;SDS011;46694;54.382;9.708;2023-02-26T11:47:35;13.88;;;1.38;;
60859;SDS011;46694;54.382;9.708;2023-02-26T11:50:20;11.00;;;1.75;;
60859;SDS011;46694;54.382;9.708;2023-02-26T11:53:04;3.03;;;1.25;;
60859;SDS011;46694;54.382;9.708;2023-02-26T11:55:57;4.32;;;1.40;;
60859;SDS011;46694;54.382;9.708;2023-02-26T11:58:42;5.72;;;2.13;;
60859;SDS011;46694;54.382;9.708;2023-02-26T12:01:26;4.53;;;1.35;;
60859;SDS011;46694;54.382;9.708;2023-02-26T12:04:08;3.28;;;1.23;;
60859;SDS011;46694;54.382;9.708;2023-02-26T12:06:51;5.45;;;1.42;;
60859;SDS011;46694;54.382;9.708;2023-02-26T12:09:33;8.98;;;1.35;;
60859;SDS011;46694;54.382;9.708;2023-02-26T12:18:10;1.67;;;0.80;;
60859;SDS011;46694;54.382;9.708;2023-02-26T12:21:14;5.72;;;1.30;;
60859;SDS011;46694;54.382;9.708;2023-02-26T12:27:18;6.60;;;1.48;;
60859;SDS011;46694;54.382;9.708;2023-02-26T12:42:01;2.63;;;0.95;;
60859;SDS011;46694;54.382;9.708;2023-02-26T12:48:27;1.52;;;0.80;;
60859;SDS011;46694;54.382;9.708;2023-02-26T13:10:19;7.90;;;1.55;;
60859;SDS011;46694;54.382;9.708;2023-02-26T13:20:03;7.57;;;1.25;;
60859;SDS011;46694;54.382;9.708;2023-02-26T13:23:09;8.23;;;1.70;;
60859;SDS011;46694;54.382;9.708;2023-02-26T13:26:01;6.45;;;1.50;;
60859;SDS011;46694;54.382;9.708;2023-02-26T13:28:51;9.27;;;2.60;;
60859;SDS011;46694;54.382;9.708;2023-02-26T13:34:58;5.47;;;2.03;;
60859;SDS011;46694;54.382;9.708;2023-02-26T13:37:49;7.55;;;2.28;;
60859;SDS011;46694;54.382;9.708;2023-02-26T13:40:37;3.70;;;1.48;;
60859;SDS011;46694;54.382;9.708;2023-02-26T13:46:46;5.28;;;1.23;;
60859;SDS011;46694;54.382;9.708;2023-02-26T14:03:11;8.00;;;1.45;;
60859;SDS011;46694;54.382;9.708;2023-02-26T14:09:01;3.05;;;1.27;;
60859;SDS011;46694;54.382;9.708;2023-02-26T14:14:38;4.13;;;1.35;;
60859;SDS011;46694;54.382;9.708;2023-02-26T14:17:29;3.83;;;1.65;;
60859;SDS011;46694;54.382;9.708;2023-02-26T14:25:50;7.15;;;1.10;;
60859;SDS011;46694;54.382;9.708;2023-02-26T14:28:40;5.35;;;0.95;;
60859;SDS011;46694;54.382;9.708;2023-02-26T14:34:29;12.18;;;1.30;;
60859;SDS011;46694;54.382;9.708;2023-02-26T14:37:14;5.68;;;1.30;;
60859;SDS011;46694;54.382;9.708;2023-02-26T14:40:18;3.17;;;1.15;;
60859;SDS011;46694;54.382;9.708;2023-02-26T14:43:03;2.22;;;1.00;;
60859;SDS011;46694;54.382;9.708;2023-02-26T14:45:46;3.03;;;0.95;;
60859;SDS011;46694;54.382;9.708;2023-02-26T14:48:27;7.07;;;1.90;;
60859;SDS011;46694;54.382;9.708;2023-02-26T14:54:19;3.83;;;1.65;;
60859;SDS011;46694;54.382;9.708;2023-02-26T14:57:52;5.32;;;1.77;;
60859;SDS011;46694;54.382;9.708;2023-02-26T15:04:32;7.10;;;1.10;;
60859;SDS011;46694;54.382;9.708;2023-02-26T15:20:09;2.55;;;0.65;;
60859;SDS011;46694;54.382;9.708;2023-02-26T15:26:19;8.18;;;0.90;;
60859;SDS011;46694;54.382;9.708;2023-02-26T15:29:12;2.35;;;0.95;;
60859;SDS011;46694;54.382;9.708;2023-02-26T15:31:56;5.00;;;1.00;;
60859;SDS011;46694;54.382;9.708;2023-02-26T15:35:06;1.08;;;0.70;;
60859;SDS011;46694;54.382;9.708;2023-02-26T15:37:59;1.50;;;1.23;;
60859;SDS011;46694;54.382;9.708;2023-02-26T15:40:40;4.18;;;0.85;;
60859;SDS011;46694;54.382;9.708;2023-02-26T15:43:22;3.78;;;0.90;;
60859;SDS011;46694;54.382;9.708;2023-02-26T15:46:05;5.60;;;0.80;;
60859;SDS011;46694;54.382;9.708;2023-02-26T15:48:44;2.85;;;1.33;;
60859;SDS011;46694;54.382;9.708;2023-02-26T15:51:24;6.10;;;2.17;;
60859;SDS011;46694;54.382;9.708;2023-02-26T15:54:05;3.67;;;1.73;;
60859;SDS011;46694;54.382;9.708;2023-02-26T15:56:45;5.93;;;1.80;;
60859;SDS011;46694;54.382;9.708;2023-02-26T15:59:26;3.38;;;0.93;;
60859;SDS011;46694;54.382;9.708;2023-02-26T16:02:13;5.20;;;1.15;;
60859;SDS011;46694;54.382;9.708;2023-02-26T16:04:55;4.72;;;0.95;;
60859;SDS011;46694;54.382;9.708;2023-02-26T16:07:34;3.53;;;1.25;;
60859;SDS011;46694;54.382;9.708;2023-02-26T16:10:25;6.57;;;1.60;;
60859;SDS011;46694;54.382;9.708;2023-02-26T16:13:26;3.45;;;1.40;;
60859;SDS011;46694;54.382;9.708;2023-02-26T16:16:14;4.15;;;1.20;;
60859;SDS011;46694;54.382;9.708;2023-02-26T16:19:03;5.35;;;1.38;;
60859;SDS011;46694;54.382;9.708;2023-02-26T16:21:44;5.28;;;1.55;;
60859;SDS011;46694;54.382;9.708;2023-02-26T16:24:25;9.50;;;1.33;;
60859;SDS011;46694;54.382;9.708;2023-02-26T16:27:08;6.45;;;1.15;;
60859;SDS011;46694;54.382;9.708;2023-02-26T16:29:51;4.15;;;1.25;;
60859;SDS011;46694;54.382;9.708;2023-02-26T16:32:34;1.45;;;1.13;;
60859;SDS011;46694;54.382;9.708;2023-02-26T16:35:15;9.20;;;1.00;;
60859;SDS011;46694;54.382;9.708;2023-02-26T16:38:04;1.65;;;1.23;;
60859;SDS011;46694;54.382;9.708;2023-02-26T16:41:12;9.85;;;1.17;;
60859;SDS011;46694;54.382;9.708;2023-02-26T16:46:42;4.85;;;1.05;;
60859;SDS011;46694;54.382;9.708;2023-02-26T16:49:24;6.60;;;1.57;;
60859;SDS011;46694;54.382;9.708;2023-02-26T16:52:17;3.45;;;1.83;;
60859;SDS011;46694;54.382;9.708;2023-02-26T16:55:02;3.80;;;1.77;;
60859;SDS011;46694;54.382;9.708;2023-02-26T16:57:45;5.03;;;1.60;;
60859;SDS011;46694;54.382;9.708;2023-02-26T17:00:26;6.00;;;1.60;;
60859;SDS011;46694;54.382;9.708;2023-02-26T17:03:17;8.43;;;1.88;;
60859;SDS011;46694;54.382;9.708;2023-02-26T17:06:00;7.13;;;1.60;;
60859;SDS011;46694;54.382;9.708;2023-02-26T17:08:51;7.72;;;1.90;;
60859;SDS011;46694;54.382;9.708;2023-02-26T17:11:39;5.40;;;1.63;;
60859;SDS011;46694;54.382;9.708;2023-02-26T17:14:25;3.22;;;1.15;;
60859;SDS011;46694;54.382;9.708;2023-02-26T17:17:07;8.63;;;1.80;;
60859;SDS011;46694;54.382;9.708;2023-02-26T17:19:48;6.88;;;1.92;;
60859;SDS011;46694;54.382;9.708;2023-02-26T17:22:27;3.25;;;1.50;;
60859;SDS011;46694;54.382;9.708;2023-02-26T17:25:09;6.72;;;2.20;;
60859;SDS011;46694;54.382;9.708;2023-02-26T17:27:53;10.68;;;2.72;;
60859;SDS011;46694;54.382;9.708;2023-02-26T17:30:34;20.63;;;5.78;;
60859;SDS011;46694;54.382;9.708;2023-02-26T17:33:13;16.50;;;7.15;;
60859;SDS011;46694;54.382;9.708;2023-02-26T17:35:58;24.98;;;6.85;;
60859;SDS011;46694;54.382;9.708;2023-02-26T17:38:40;11.13;;;5.95;;
60859;SDS011;46694;54.382;9.708;2023-02-26T17:41:24;14.43;;;5.53;;
60859;SDS011;46694;54.382;9.708;2023-02-26T17:44:05;11.48;;;4.57;;
60859;SDS011;46694;54.382;9.708;2023-02-26T17:46:45;14.50;;;5.75;;
60859;SDS011;46694;54.382;9.708;2023-02-26T17:49:25;10.93;;;4.47;;
60859;SDS011;46694;54.382;9.708;2023-02-26T17:52:04;5.82;;;3.38;;
60859;SDS011;46694;54.382;9.708;2023-02-26T17:54:43;12.13;;;2.90;;
60859;SDS011;46694;54.382;9.708;2023-02-26T17:57:23;6.95;;;2.10;;
60859;SDS011;46694;54.382;9.708;2023-02-26T18:00:05;10.35;;;2.65;;
60859;SDS011;46694;54.382;9.708;2023-02-26T18:02:46;6.40;;;2.17;;
60859;SDS011;46694;54.382;9.708;2023-02-26T18:05:26;4.05;;;2.15;;
60859;SDS011;46694;54.382;9.708;2023-02-26T18:08:16;7.97;;;2.08;;
60859;SDS011;46694;54.382;9.708;2023-02-26T18:11:00;6.85;;;2.50;;
60859;SDS011;46694;54.382;9.708;2023-02-26T18:13:41;6.38;;;2.95;;
60859;SDS011;46694;54.382;9.708;2023-02-26T18:20:20;12.75;;;6.40;;
60859;SDS011;46694;54.382;9.708;2023-02-26T18:23:00;7.85;;;4.32;;
60859;SDS011;46694;54.382;9.708;2023-02-26T18:25:39;12.88;;;3.75;;
60859;SDS011;46694;54.382;9.708;2023-02-26T18:28:24;7.20;;;3.17;;
60859;SDS011;46694;54.382;9.708;2023-02-26T18:31:05;5.38;;;1.60;;
60859;SDS011;46694;54.382;9.708;2023-02-26T18:33:47;6.88;;;1.90;;
60859;SDS011;46694;54.382;9.708;2023-02-26T18:36:28;20.10;;;3.17;;
60859;SDS011;46694;54.382;9.708;2023-02-26T18:39:17;8.75;;;2.75;;
60859;SDS011;46694;54.382;9.708;2023-02-26T18:41:58;8.95;;;2.97;;
60859;SDS011;46694;54.382;9.708;2023-02-26T18:44:47;11.15;;;4.10;;
60859;SDS011;46694;54.382;9.708;2023-02-26T18:47:30;12.82;;;3.70;;
60859;SDS011;46694;54.382;9.708;2023-02-26T18:50:11;7.93;;;3.28;;
60859;SDS011;46694;54.382;9.708;2023-02-26T18:52:54;7.00;;;3.40;;
60859;SDS011;46694;54.382;9.708;2023-02-26T18:55:34;12.70;;;5.40;;
60859;SDS011;46694;54.382;9.708;2023-02-26T18:58:13;12.80;;;4.10;;
60859;SDS011;46694;54.382;9.708;2023-02-26T19:00:53;10.98;;;2.42;;
60859;SDS011;46694;54.382;9.708;2023-02-26T19:03:33;5.20;;;1.98;;
60859;SDS011;46694;54.382;9.708;2023-02-26T19:06:12;10.27;;;4.35;;
60859;SDS011;46694;54.382;9.708;2023-02-26T19:08:52;13.45;;;5.50;;
60859;SDS011;46694;54.382;9.708;2023-02-26T19:11:31;7.78;;;4.90;;
60859;SDS011;46694;54.382;9.708;2023-02-26T19:14:11;10.18;;;3.95;;
60859;SDS011;46694;54.382;9.708;2023-02-26T19:16:51;9.20;;;3.75;;
60859;SDS011;46694;54.382;9.708;2023-02-26T19:19:32;24.35;;;11.10;;
60859;SDS011;46694;54.382;9.708;2023-02-26T19:22:12;15.02;;;8.73;;
60859;SDS011;46694;54.382;9.708;2023-02-26T19:24:52;16.33;;;8.70;;
60859;SDS011;46694;54.382;9.708;2023-02-26T19:27:32;15.52;;;4.70;;